This is the latest recevied weather packets stored in our database for station/object EB1BWO-10. If no packets are shown the sender has not sent any weather packets the latest 10 day(s).
| Time | Temp. | Humidity | Pressure | Rain* | Wind** | Luminosity | Snow |
|---|---|---|---|---|---|---|---|
| 1777117347 | 15° C | 81% | 955.1 hPa | - | - | - | - |
| 1777116447 | 14.44° C | 82% | 955.5 hPa | - | - | - | - |
| 1777115547 | 13.89° C | 82% | 955.5 hPa | - | - | - | - |
| 1777114647 | 13.89° C | 81% | 955.5 hPa | - | - | - | - |
| 1777113747 | 13.89° C | 81% | 955.8 hPa | - | - | - | - |
| 1777112847 | 13.89° C | 83% | 955.7 hPa | - | - | - | - |
| 1777111947 | 13.33° C | 84% | 955.7 hPa | - | - | - | - |
| 1777111047 | 13.33° C | 85% | 955.8 hPa | - | - | - | - |
| 1777110147 | 12.22° C | 86% | 955.7 hPa | - | - | - | - |
| 1777109247 | 11.11° C | 85% | 953.9 hPa | - | - | - | - |
| 1777108347 | 12.22° C | 84% | 955.7 hPa | - | - | - | - |
| 1777107447 | 12.78° C | 85% | 955.7 hPa | - | - | - | - |
| 1777106546 | 12.78° C | 85% | 955.7 hPa | - | - | - | - |
| 1777105646 | 12.22° C | 85% | 955.6 hPa | - | - | - | - |
| 1777102946 | 11.67° C | 87% | 955.7 hPa | - | - | - | - |
| 1777102046 | 11.67° C | 87% | 955.7 hPa | - | - | - | - |
| 1777101146 | 11.11° C | 89% | 955.6 hPa | - | - | - | - |
| 1777099347 | 10.56° C | 89% | 955.5 hPa | - | - | - | - |
| 1777098447 | 10° C | 90% | 955.5 hPa | - | - | - | - |
| 1777097547 | 10° C | 91% | 955.4 hPa | - | - | - | - |
| 1777096647 | 9.44° C | 93% | 955.4 hPa | - | - | - | - |
| 1777095747 | 9.44° C | 90% | 955.3 hPa | - | - | - | - |
| 1777094847 | 10° C | 90% | 955.2 hPa | - | - | - | - |
| 1777093947 | 10° C | 89% | 954.9 hPa | - | - | - | - |
| 1777093046 | 10° C | 89% | 955 hPa | - | - | - | - |
* Rain since midnight (hover to see other rain measurements)
** Current wind speed in m/s (hover to see current wind gust speed)